SLLP/LPB METAR and TAF weather

Enter ICAO airport designator
Station Type Date Time Source
SLLP METAR 2019/08/23 15:00 UTC NOAA

SLLP 231500Z 15005KT 9000 SCT015 09/M02 Q1043


Station Type Date Time Source
SLLP Decoded METAR 2019/08/23 15:00 UTC NOAA

Station name not available
Aug 23, 2019 - 11:00 AM EDT / 2019.08.23 1500 UTC
Wind: from the SSE (150 degrees) at 6 MPH (5 KT):0
Visibility: 5 mile(s):0
Sky conditions: partly cloudy
Temperature: 48 F (9 C)
Dew Point: 28 F (-2 C)
Relative Humidity: 45%
Pressure (altimeter): 30.80 in. Hg (1043 hPa)
ob: SLLP 231500Z 15005KT 9000 SCT015 09/M02 Q1043
cycle: 15

Station Type Date Time Source
SLLP TAF 2019/08/23 12:41 UTC NOAA

TAF SLLP 231000Z 2312/2412 09005KT 9999 SCT015 TX16/2320Z TNM02/2410Z
BECMG 2314/2316 14010KT
BECMG 2405/2407 3000E VCFG FEW002 SCT012

Example: see airport list